SVMC/MAR METAR and TAF weather

Enter ICAO airport designator
Station Type Date Time Source
SVMC METAR 2021/05/10 22:02 UTC NOAA

SVMC 102202Z AUTO 00000KT NCD 0/// Q////


Station Type Date Time Source
SVMC Decoded METAR 2021/05/10 22:02 UTC NOAA

Maracaibo-La Chinita, Venezuela (SVMC) 10-34N 071-44W 65M
May 10, 2021 - 06:02 PM EDT / 2021.05.10 2202 UTC
Wind: Calm:0
ob: SVMC 102202Z AUTO 00000KT NCD 0/// Q////
cycle: 22

Station Type Date Time Source
SVMC TAF 2021/05/11 00:00 UTC NOAA

TAF SVMC 102200Z 1100/1200 32006KT 9999 SCT016 TX32/1118Z TN25/1107Z
TEMPO 1100/1104 14006KT 9999 SCT016

Example: see airport list